Time;durP1;ratioP1;P1;durP2;ratioP2;P2;SDS_P1;SDS_P2;PMS_P1;PMS_P2;Temp;Humidity;BMP_temperature;BMP_pressure;BME280_temperature;BME280_humidity;BME280_pressure;Samples;Min_cycle;Max_cycle;Signal;HPM_P1;HPM_P2
2024/03/13 00:02:21;;;;;;;5.60;3.45;;;9.00;61.10;;;;;;5135852;27;20172;-67
2024/03/13 00:04:48;;;;;;;8.43;3.92;;;9.00;61.10;;;;;;5135089;27;20214;-66
2024/03/13 00:07:16;;;;;;;6.40;3.50;;;9.00;61.50;;;;;;5135145;27;20270;-66
2024/03/13 00:09:45;;;;;;;7.47;3.30;;;9.00;61.80;;;;;;5135070;27;20279;-67
2024/03/13 00:12:14;;;;;;;6.25;3.75;;;9.00;62.10;;;;;;5135614;27;20183;-66
2024/03/13 00:14:41;;;;;;;5.93;3.63;;;9.00;62.10;;;;;;5134946;27;20232;-67
2024/03/13 00:17:10;;;;;;;6.43;3.75;;;9.10;62.20;;;;;;5135530;27;20183;-67
2024/03/13 00:19:37;;;;;;;5.57;3.50;;;9.10;62.50;;;;;;5134949;27;20219;-67
2024/03/13 00:22:07;;;;;;;6.82;3.53;;;9.10;62.90;;;;;;5135283;27;20210;-67
2024/03/13 00:24:36;;;;;;;10.27;5.18;;;9.10;63.20;;;;;;5134883;27;20183;-66
2024/03/13 00:27:03;;;;;;;10.57;5.70;;;9.10;62.40;;;;;;5134850;27;20257;-66
2024/03/13 00:29:30;;;;;;;11.02;6.22;;;9.10;62.50;;;;;;5135405;27;20592;-67
2024/03/13 00:31:58;;;;;;;8.00;4.35;;;9.00;62.40;;;;;;5135050;27;20184;-67
2024/03/13 00:34:25;;;;;;;8.23;4.40;;;9.00;62.40;;;;;;5135055;27;20566;-67
2024/03/13 00:36:52;;;;;;;6.82;4.25;;;9.00;62.50;;;;;;5134725;27;20638;-66
2024/03/13 00:39:19;;;;;;;7.72;4.70;;;8.90;62.80;;;;;;5135021;27;20183;-66
2024/03/13 00:41:48;;;;;;;6.05;3.00;;;8.80;63.00;;;;;;5134895;27;20183;-66
2024/03/13 00:44:15;;;;;;;5.50;3.85;;;8.80;63.10;;;;;;5134899;27;20215;-66
2024/03/13 00:46:43;;;;;;;7.10;3.83;;;8.90;63.50;;;;;;5134777;27;20253;-66
2024/03/13 00:49:10;;;;;;;15.20;7.57;;;8.80;63.70;;;;;;5134911;27;20214;-66
2024/03/13 00:51:39;;;;;;;7.25;4.38;;;8.80;64.10;;;;;;5134736;27;20191;-66
2024/03/13 00:54:08;;;;;;;9.27;5.60;;;8.80;64.50;;;;;;5134374;27;20198;-66
2024/03/13 00:56:35;;;;;;;12.57;4.60;;;8.80;64.80;;;;;;5133873;27;20656;-66
2024/03/13 00:59:06;;;;;;;7.55;4.70;;;8.80;65.30;;;;;;5134310;27;20184;-66
2024/03/13 01:01:32;;;;;;;7.63;4.38;;;8.70;65.70;;;;;;5134907;27;20187;-66
2024/03/13 01:04:00;;;;;;;8.10;4.00;;;8.80;65.50;;;;;;5134605;27;20187;-66
2024/03/13 01:06:29;;;;;;;10.48;4.90;;;8.80;66.20;;;;;;5134562;27;20204;-66
2024/03/13 01:08:58;;;;;;;7.35;4.90;;;8.80;66.00;;;;;;5134818;27;20233;-65
2024/03/13 01:11:25;;;;;;;9.40;4.50;;;8.80;66.40;;;;;;5134547;28;20291;-65
2024/03/13 01:13:52;;;;;;;8.23;4.60;;;8.70;66.90;;;;;;5133603;27;20187;-66
2024/03/13 01:16:22;;;;;;;5.70;3.75;;;8.70;67.20;;;;;;5134707;28;20191;-66
2024/03/13 01:18:50;;;;;;;6.15;3.67;;;8.70;67.40;;;;;;5134726;28;20665;-66
2024/03/13 01:21:21;;;;;;;6.18;3.95;;;8.80;68.10;;;;;;5134205;28;20697;-66
2024/03/13 01:23:48;;;;;;;5.72;3.80;;;8.80;68.40;;;;;;5134481;28;20172;-67
2024/03/13 01:26:14;;;;;;;5.90;3.80;;;8.80;68.70;;;;;;5134102;28;20665;-66
2024/03/13 01:28:43;;;;;;;6.63;3.67;;;8.80;68.80;;;;;;5134987;28;20538;-66
2024/03/13 01:31:13;;;;;;;11.13;3.53;;;8.80;69.20;;;;;;5134295;28;20184;-66
2024/03/13 01:33:43;;;;;;;5.95;3.72;;;8.80;69.50;;;;;;5134064;28;20194;-66
2024/03/13 01:36:11;;;;;;;6.20;3.88;;;8.80;70.80;;;;;;5133956;28;20536;-66
2024/03/13 01:38:37;;;;;;;5.60;4.03;;;8.90;70.30;;;;;;5134355;28;20232;-66
2024/03/13 01:55:10;;;;;;;4.38;2.88;;;8.90;71.20;;;;;;5134074;28;20592;-66
2024/03/13 01:58:07;;;;;;;4.93;3.33;;;8.90;71.30;;;;;;5133920;28;20203;-66
2024/03/13 02:03:22;;;;;;;5.70;3.38;;;8.90;71.80;;;;;;5133921;28;20658;-67
2024/03/13 02:05:51;;;;;;;6.82;4.10;;;8.80;71.50;;;;;;5133934;28;20298;-65
2024/03/13 02:08:20;;;;;;;6.00;3.60;;;8.80;71.20;;;;;;5133748;28;20232;-66
2024/03/13 02:10:49;;;;;;;4.85;2.75;;;8.80;71.60;;;;;;5133986;28;20180;-66
2024/03/13 02:13:18;;;;;;;5.70;3.72;;;8.90;72.00;;;;;;5133792;28;20188;-65
2024/03/13 02:15:48;;;;;;;5.15;3.53;;;8.90;71.60;;;;;;5133915;28;20282;-65
2024/03/13 02:18:19;;;;;;;5.85;3.25;;;8.80;72.00;;;;;;5133361;28;20224;-65
2024/03/13 02:20:47;;;;;;;5.68;4.07;;;8.80;72.00;;;;;;5134133;28;20223;-66
2024/03/13 02:23:21;;;;;;;8.82;4.70;;;8.80;72.40;;;;;;5133906;27;20206;-66
2024/03/13 02:25:51;;;;;;;6.63;3.70;;;8.90;72.60;;;;;;5102302;27;20277;-67
2024/03/13 02:28:22;;;;;;;5.35;3.63;;;8.80;72.70;;;;;;5103246;27;20194;-67
2024/03/13 02:30:49;;;;;;;6.35;3.85;;;8.80;72.90;;;;;;5103154;27;20615;-65
2024/03/13 02:33:15;;;;;;;6.28;3.80;;;8.80;73.10;;;;;;5101949;27;20228;-65
2024/03/13 02:35:44;;;;;;;5.43;3.47;;;8.80;73.20;;;;;;5102338;27;20589;-65
2024/03/13 02:38:15;;;;;;;4.75;2.78;;;8.80;73.20;;;;;;5102674;27;20183;-67
2024/03/13 02:40:44;;;;;;;5.50;3.50;;;8.80;73.40;;;;;;5102784;27;20172;-65
2024/03/13 02:43:14;;;;;;;5.05;3.17;;;8.80;73.30;;;;;;5102364;27;20563;-67
2024/03/13 02:45:45;;;;;;;6.53;3.42;;;8.80;73.40;;;;;;5103248;27;20618;-65
2024/03/13 02:48:15;;;;;;;6.85;3.55;;;8.70;73.40;;;;;;5103217;27;20526;-67
2024/03/13 02:50:43;;;;;;;5.05;3.10;;;8.70;73.90;;;;;;5102653;27;20700;-64
2024/03/13 02:53:10;;;;;;;5.13;3.00;;;8.70;74.30;;;;;;5101780;27;20271;-65
2024/03/13 02:55:37;;;;;;;7.30;4.57;;;8.70;74.80;;;;;;5102028;27;20583;-65
2024/03/13 02:58:04;;;;;;;5.53;3.67;;;8.70;74.90;;;;;;5101917;27;20180;-65
2024/03/13 03:00:31;;;;;;;5.43;3.78;;;8.60;75.20;;;;;;5101741;27;20630;-64
2024/03/13 03:02:58;;;;;;;5.63;3.63;;;8.60;75.50;;;;;;5101755;27;20219;-64
2024/03/13 03:05:28;;;;;;;5.13;3.47;;;8.60;75.90;;;;;;5101389;27;20233;-65
2024/03/13 03:07:57;;;;;;;6.55;3.83;;;8.60;75.80;;;;;;5102714;27;20619;-65
2024/03/13 03:10:24;;;;;;;6.25;3.95;;;8.70;75.90;;;;;;5101730;27;20581;-65
2024/03/13 03:12:51;;;;;;;11.63;4.53;;;8.60;75.90;;;;;;5101325;27;20188;-65
2024/03/13 03:15:21;;;;;;;4.53;3.03;;;8.60;75.50;;;;;;5101883;27;20535;-65
2024/03/13 03:17:48;;;;;;;6.95;3.42;;;8.60;75.90;;;;;;5101833;27;20184;-65
2024/03/13 03:20:15;;;;;;;5.53;3.70;;;8.60;76.20;;;;;;5100907;27;20207;-65
2024/03/13 03:22:42;;;;;;;6.07;3.85;;;8.60;76.60;;;;;;5101133;27;20183;-65
2024/03/13 03:25:09;;;;;;;7.40;4.68;;;8.50;76.80;;;;;;5100852;27;20215;-66
2024/03/13 03:27:37;;;;;;;5.70;4.10;;;8.60;77.50;;;;;;5101003;27;20211;-65
2024/03/13 03:30:06;;;;;;;6.20;4.38;;;8.50;77.50;;;;;;5100977;27;20199;-65
2024/03/13 03:32:33;;;;;;;6.25;3.75;;;8.60;77.90;;;;;;5101694;27;20183;-65
2024/03/13 03:35:00;;;;;;;7.85;4.20;;;8.60;78.20;;;;;;5100410;27;20236;-65
2024/03/13 03:37:27;;;;;;;4.88;4.10;;;8.60;78.00;;;;;;5101056;27;20240;-67
2024/03/13 03:39:53;;;;;;;6.57;4.20;;;8.60;77.90;;;;;;5100713;27;20268;-67
2024/03/13 03:42:20;;;;;;;4.82;3.30;;;8.60;77.90;;;;;;5100604;27;20184;-64
2024/03/13 03:44:48;;;;;;;4.70;3.13;;;8.60;78.00;;;;;;5100928;27;20252;-64
2024/03/13 03:47:15;;;;;;;6.90;3.85;;;8.50;78.30;;;;;;5101031;27;20257;-65
2024/03/13 03:49:42;;;;;;;6.20;3.25;;;8.60;78.80;;;;;;5101015;27;20195;-64
2024/03/13 03:52:09;;;;;;;5.97;3.83;;;8.60;78.60;;;;;;5100849;27;20184;-65
2024/03/13 03:54:36;;;;;;;5.55;3.75;;;8.60;79.20;;;;;;5100493;27;20215;-67
2024/03/13 03:57:03;;;;;;;6.65;4.18;;;8.60;79.40;;;;;;5100693;27;20197;-65
2024/03/13 03:59:30;;;;;;;6.68;4.00;;;8.50;79.30;;;;;;5100532;27;20187;-67
2024/03/13 04:01:57;;;;;;;6.10;4.00;;;8.50;79.60;;;;;;5100640;27;20626;-66
2024/03/13 04:04:26;;;;;;;7.45;4.00;;;8.50;79.50;;;;;;5100318;27;20184;-66
2024/03/13 04:06:53;;;;;;;8.07;4.25;;;8.50;80.00;;;;;;5101026;27;20290;-67
2024/03/13 04:09:20;;;;;;;8.07;4.70;;;8.50;80.10;;;;;;5100225;27;20180;-67
2024/03/13 04:11:47;;;;;;;6.65;3.78;;;8.50;80.00;;;;;;5100555;27;20191;-65
2024/03/13 04:14:14;;;;;;;7.72;4.18;;;8.50;80.20;;;;;;5100532;27;20264;-67
2024/03/13 04:16:43;;;;;;;5.40;3.63;;;8.40;80.20;;;;;;5100700;27;20278;-67
2024/03/13 04:19:10;;;;;;;7.10;4.28;;;8.40;80.50;;;;;;5097048;28;20307;-65
2024/03/13 04:21:38;;;;;;;7.00;4.28;;;8.50;80.70;;;;;;5113827;28;20515;-65
2024/03/13 04:24:07;;;;;;;5.97;3.42;;;8.50;80.70;;;;;;5097031;28;20180;-65
2024/03/13 04:26:37;;;;;;;5.75;3.83;;;8.50;80.70;;;;;;5096917;28;20531;-66
2024/03/13 04:29:04;;;;;;;6.00;3.97;;;8.40;81.00;;;;;;5094092;28;20216;-65
2024/03/13 04:31:33;;;;;;;7.47;4.35;;;8.50;81.50;;;;;;5096271;28;20710;-65
2024/03/13 04:34:01;;;;;;;5.38;3.75;;;8.50;81.10;;;;;;5096418;28;20190;-65
2024/03/13 04:36:28;;;;;;;5.22;3.92;;;8.50;81.00;;;;;;5096677;28;20223;-65
2024/03/13 04:38:54;;;;;;;6.30;4.07;;;8.40;80.80;;;;;;5096136;28;20630;-66
2024/03/13 04:41:22;;;;;;;7.00;3.40;;;8.50;80.70;;;;;;5096709;28;20588;-66
2024/03/13 04:43:50;;;;;;;6.55;4.35;;;8.40;80.40;;;;;;5096338;28;20727;-65
2024/03/13 04:46:17;;;;;;;6.30;3.97;;;8.40;80.70;;;;;;5096433;28;20200;-65
2024/03/13 04:48:45;;;;;;;4.85;3.38;;;8.40;81.40;;;;;;5095715;28;20600;-65
2024/03/13 04:51:15;;;;;;;6.32;4.18;;;8.40;81.70;;;;;;5096111;28;20228;-65
2024/03/13 04:53:46;;;;;;;7.40;4.90;;;8.40;81.50;;;;;;5096829;28;20222;-65
2024/03/13 04:56:15;;;;;;;5.68;4.13;;;8.40;81.60;;;;;;5096794;28;20226;-67
2024/03/13 04:58:44;;;;;;;6.25;4.22;;;8.40;81.10;;;;;;5096649;28;20208;-66
2024/03/13 05:01:19;;;;;;;6.93;4.55;;;8.40;80.90;;;;;;5096406;28;20192;-65
2024/03/13 05:03:46;;;;;;;7.32;4.30;;;8.40;81.40;;;;;;5096876;28;20268;-66
2024/03/13 05:06:15;;;;;;;7.80;4.85;;;8.40;81.20;;;;;;5095639;28;20243;-67
2024/03/13 05:08:42;;;;;;;7.95;5.00;;;8.40;81.20;;;;;;5096298;28;20545;-68
2024/03/13 05:11:10;;;;;;;6.97;5.18;;;8.40;81.20;;;;;;5095764;28;20218;-67
2024/03/13 05:13:39;;;;;;;5.55;4.00;;;8.30;81.50;;;;;;5096095;28;20271;-64
2024/03/13 05:16:09;;;;;;;7.53;5.60;;;8.30;82.10;;;;;;5096108;28;20627;-65
2024/03/13 05:18:37;;;;;;;10.15;4.30;;;8.30;82.40;;;;;;5095875;28;20177;-65
2024/03/13 05:21:04;;;;;;;6.93;4.20;;;8.20;82.40;;;;;;5096311;28;20172;-65
2024/03/13 05:23:31;;;;;;;10.88;6.32;;;8.20;82.80;;;;;;5096036;28;20596;-65
2024/03/13 05:25:59;;;;;;;13.13;8.18;;;8.20;83.40;;;;;;5095967;28;20289;-65
2024/03/13 05:28:28;;;;;;;9.85;6.90;;;8.20;83.00;;;;;;5095937;28;20188;-67
2024/03/13 05:30:55;;;;;;;6.28;4.93;;;8.20;83.00;;;;;;5095872;28;20254;-67
2024/03/13 05:33:22;;;;;;;7.68;3.78;;;8.20;83.20;;;;;;5096081;28;20227;-68
2024/03/13 05:35:49;;;;;;;6.50;4.35;;;8.30;83.10;;;;;;5095558;28;20188;-64
2024/03/13 05:38:17;;;;;;;5.82;3.67;;;8.30;83.10;;;;;;5095712;28;20700;-67
2024/03/13 05:40:44;;;;;;;8.20;4.30;;;8.30;82.90;;;;;;5095715;28;20269;-66
2024/03/13 05:43:12;;;;;;;5.00;3.70;;;8.30;82.60;;;;;;5095506;28;20192;-65
2024/03/13 05:45:39;;;;;;;4.93;3.00;;;8.30;81.40;;;;;;5095715;28;20659;-67
2024/03/13 05:48:06;;;;;;;4.75;2.78;;;8.20;79.30;;;;;;5095331;28;20212;-65
2024/03/13 05:50:33;;;;;;;3.65;2.63;;;8.10;78.70;;;;;;5095459;28;20181;-65
2024/03/13 05:53:00;;;;;;;4.82;2.40;;;8.00;77.90;;;;;;5095325;28;20646;-66
2024/03/13 05:55:28;;;;;;;4.00;2.30;;;7.90;79.00;;;;;;5095259;28;20189;-65
2024/03/13 05:57:55;;;;;;;4.03;2.08;;;7.90;79.40;;;;;;5095224;28;20188;-67
2024/03/13 06:00:23;;;;;;;4.63;2.50;;;7.80;79.60;;;;;;5098723;28;20192;-65
2024/03/13 06:02:51;;;;;;;3.92;2.10;;;7.80;80.50;;;;;;5098798;28;20184;-65
2024/03/13 06:05:19;;;;;;;3.63;2.22;;;7.80;80.90;;;;;;5099323;28;20246;-65
2024/03/13 06:07:47;;;;;;;3.47;2.05;;;7.80;81.00;;;;;;5098826;28;20209;-65
2024/03/13 06:10:15;;;;;;;5.80;2.40;;;7.80;81.30;;;;;;5099128;28;20665;-65
2024/03/13 06:12:42;;;;;;;5.50;3.50;;;7.80;81.20;;;;;;5098948;28;20188;-65
2024/03/13 06:15:13;;;;;;;7.28;4.30;;;7.90;81.00;;;;;;5115952;28;20187;-65
2024/03/13 06:17:40;;;;;;;6.47;4.30;;;7.90;81.00;;;;;;5099270;28;20191;-65
2024/03/13 06:20:12;;;;;;;5.85;3.60;;;7.90;81.00;;;;;;5098856;28;20601;-65
2024/03/13 06:22:40;;;;;;;7.28;3.78;;;8.00;81.40;;;;;;5099453;28;20268;-65
2024/03/13 06:25:08;;;;;;;5.25;3.92;;;8.00;81.20;;;;;;5115598;28;20531;-65
2024/03/13 06:27:35;;;;;;;6.03;3.80;;;8.00;81.90;;;;;;5098434;28;20208;-65
2024/03/13 06:30:01;;;;;;;5.88;3.95;;;8.00;82.10;;;;;;5115522;28;20254;-65
2024/03/13 06:32:29;;;;;;;6.90;3.80;;;8.00;82.50;;;;;;5098444;28;20191;-64
2024/03/13 06:34:56;;;;;;;6.72;4.38;;;8.00;83.00;;;;;;5099031;28;20185;-64
2024/03/13 06:37:24;;;;;;;7.40;4.10;;;8.10;83.40;;;;;;5098521;28;20188;-65
2024/03/13 06:39:51;;;;;;;6.65;4.88;;;8.10;83.60;;;;;;5098506;28;20223;-65
2024/03/13 06:42:18;;;;;;;15.15;7.50;;;8.10;84.20;;;;;;5098532;28;20196;-65
2024/03/13 06:44:45;;;;;;;10.52;5.70;;;8.10;84.30;;;;;;5098017;28;20180;-65
2024/03/13 06:47:12;;;;;;;7.90;3.63;;;8.20;83.50;;;;;;5098314;28;20215;-65
2024/03/13 06:49:39;;;;;;;5.70;3.95;;;8.20;83.20;;;;;;5098043;28;20707;-65
2024/03/13 06:52:07;;;;;;;6.18;3.58;;;8.20;83.50;;;;;;5098455;28;20267;-65
2024/03/13 06:54:36;;;;;;;6.55;3.75;;;8.20;83.80;;;;;;5098503;28;20191;-65
2024/03/13 06:57:03;;;;;;;6.90;3.97;;;8.20;83.70;;;;;;5098557;28;20188;-65
2024/03/13 06:59:30;;;;;;;4.63;2.95;;;8.20;84.00;;;;;;5098380;28;20569;-65
2024/03/13 07:01:59;;;;;;;5.85;2.40;;;8.20;82.40;;;;;;5098153;28;20226;-64
2024/03/13 07:04:27;;;;;;;3.80;2.60;;;8.10;82.40;;;;;;5098436;28;20594;-65
2024/03/13 07:06:57;;;;;;;3.80;2.45;;;8.10;81.90;;;;;;5097934;28;20212;-65
2024/03/13 07:09:25;;;;;;;5.82;2.90;;;8.20;80.60;;;;;;5098388;28;20173;-65
2024/03/13 07:11:52;;;;;;;5.07;3.00;;;8.10;80.70;;;;;;5097092;28;20204;-65
2024/03/13 07:14:19;;;;;;;5.05;3.28;;;8.10;80.90;;;;;;5097362;28;20184;-65
2024/03/13 07:16:46;;;;;;;6.70;3.83;;;8.10;80.60;;;;;;5096808;28;20184;-65
2024/03/13 07:19:13;;;;;;;5.57;3.70;;;8.10;81.20;;;;;;5097388;28;20278;-65
2024/03/13 07:21:40;;;;;;;4.10;3.10;;;8.20;82.00;;;;;;5097727;28;20613;-65
2024/03/13 07:24:07;;;;;;;9.30;3.88;;;8.20;82.20;;;;;;5097689;28;20294;-65
2024/03/13 07:26:33;;;;;;;5.95;4.00;;;8.30;83.50;;;;;;5097570;28;20185;-66
2024/03/13 07:29:01;;;;;;;4.77;3.33;;;8.40;84.20;;;;;;5097439;28;20192;-65
2024/03/13 07:31:28;;;;;;;6.60;4.10;;;8.50;82.70;;;;;;5114198;28;20466;-66
2024/03/13 07:33:55;;;;;;;9.63;4.88;;;8.50;83.20;;;;;;5097361;28;20285;-66
2024/03/13 07:36:22;;;;;;;5.30;3.55;;;8.50;83.10;;;;;;5096941;28;20188;-66
2024/03/13 07:38:49;;;;;;;4.75;2.90;;;8.60;83.10;;;;;;5096946;28;20231;-65
2024/03/13 07:41:16;;;;;;;4.38;2.67;;;8.60;83.20;;;;;;5097265;28;20275;-66
2024/03/13 07:43:43;;;;;;;4.60;2.80;;;8.70;82.30;;;;;;5096822;28;20541;-66
2024/03/13 07:46:10;;;;;;;5.35;2.70;;;8.70;82.10;;;;;;5097072;28;20188;-65
2024/03/13 07:48:37;;;;;;;7.50;4.43;;;8.80;82.90;;;;;;5097043;28;20298;-65
2024/03/13 07:51:06;;;;;;;6.90;3.75;;;8.80;82.20;;;;;;5097289;28;20185;-66
2024/03/13 07:53:33;;;;;;;5.22;3.53;;;8.80;81.80;;;;;;5096937;28;20267;-66
2024/03/13 07:56:00;;;;;;;4.80;3.10;;;8.90;80.20;;;;;;5097030;28;20615;-66
2024/03/13 07:58:27;;;;;;;3.78;2.67;;;8.90;79.80;;;;;;5097242;28;20196;-66
2024/03/13 08:00:54;;;;;;;4.85;3.17;;;9.00;79.90;;;;;;5096534;28;20224;-66
2024/03/13 08:03:21;;;;;;;4.10;2.92;;;9.00;79.90;;;;;;5096811;28;20238;-65
2024/03/13 08:05:49;;;;;;;14.13;10.13;;;9.00;80.30;;;;;;5096721;28;20580;-66
2024/03/13 08:08:15;;;;;;;4.18;3.38;;;8.90;80.70;;;;;;5096382;28;20236;-66
2024/03/13 08:10:42;;;;;;;6.05;4.80;;;9.00;81.60;;;;;;5096696;28;20188;-66
2024/03/13 08:13:10;;;;;;;5.07;3.08;;;9.00;81.20;;;;;;5096736;28;20285;-66
2024/03/13 08:15:38;;;;;;;4.28;2.47;;;9.00;82.00;;;;;;5096322;28;20302;-66
2024/03/13 08:18:09;;;;;;;4.40;2.67;;;9.00;82.00;;;;;;5096792;28;20220;-66
2024/03/13 08:20:36;;;;;;;3.88;2.13;;;9.00;81.90;;;;;;5096938;28;20566;-66
2024/03/13 08:23:04;;;;;;;4.25;2.65;;;9.10;81.80;;;;;;5096132;28;20234;-66
2024/03/13 08:25:30;;;;;;;3.70;2.30;;;9.00;81.70;;;;;;5096268;28;20209;-66
2024/03/13 08:27:58;;;;;;;2.90;1.77;;;9.00;82.20;;;;;;5096336;28;20305;-66
2024/03/13 08:30:26;;;;;;;4.63;3.22;;;9.00;83.30;;;;;;5096395;28;20535;-66
2024/03/13 08:32:53;;;;;;;3.70;2.20;;;9.10;83.20;;;;;;5096499;28;20199;-66
2024/03/13 08:35:21;;;;;;;2.40;1.15;;;9.10;83.60;;;;;;5096128;28;20223;-66
2024/03/13 08:37:48;;;;;;;4.55;2.00;;;9.20;83.30;;;;;;5096736;28;20180;-66
2024/03/13 08:40:16;;;;;;;2.65;1.20;;;9.30;83.20;;;;;;5095850;28;20187;-66
2024/03/13 08:42:45;;;;;;;4.65;1.75;;;9.30;81.90;;;;;;5096145;28;20207;-66
2024/03/13 08:45:13;;;;;;;3.92;1.23;;;9.40;82.00;;;;;;5096037;28;20532;-66
2024/03/13 08:47:40;;;;;;;2.10;1.00;;;9.40;82.00;;;;;;5096199;28;20200;-66
2024/03/13 08:50:07;;;;;;;4.97;2.30;;;9.50;81.30;;;;;;5095745;28;20188;-66
2024/03/13 08:52:35;;;;;;;5.25;2.72;;;9.50;82.00;;;;;;5095667;28;20184;-66
2024/03/13 08:55:02;;;;;;;5.53;2.22;;;9.60;82.70;;;;;;5095774;28;20226;-66
2024/03/13 08:57:30;;;;;;;7.28;1.55;;;9.60;82.00;;;;;;5096223;28;20188;-66
2024/03/13 08:59:57;;;;;;;2.38;1.20;;;9.70;82.00;;;;;;5096262;28;20184;-66
2024/03/13 09:02:26;;;;;;;3.17;1.70;;;9.80;80.80;;;;;;5079142;28;20180;-66
2024/03/13 09:04:54;;;;;;;4.05;2.20;;;9.90;80.70;;;;;;5112022;28;20192;-66
2024/03/13 09:07:22;;;;;;;3.50;1.80;;;10.00;79.50;;;;;;5095285;28;20220;-66
2024/03/13 09:09:49;;;;;;;4.38;2.40;;;10.00;79.50;;;;;;5095631;28;20273;-66
2024/03/13 09:12:18;;;;;;;2.95;1.40;;;10.00;79.60;;;;;;5095197;28;20184;-66
2024/03/13 09:14:45;;;;;;;2.33;0.98;;;10.10;78.80;;;;;;5095742;28;20195;-66
2024/03/13 09:17:15;;;;;;;2.83;1.40;;;10.20;78.60;;;;;;5112259;28;20219;-66
2024/03/13 09:19:42;;;;;;;3.85;1.25;;;10.30;78.70;;;;;;5095452;28;20705;-66
2024/03/13 09:22:11;;;;;;;3.28;1.30;;;10.40;77.40;;;;;;5095460;28;20309;-66
2024/03/13 09:24:38;;;;;;;2.40;1.30;;;10.60;77.10;;;;;;5095827;28;20184;-67
2024/03/13 09:27:05;;;;;;;4.80;3.08;;;10.70;76.60;;;;;;5095040;28;20226;-66
2024/03/13 09:29:32;;;;;;;3.85;2.50;;;10.70;77.40;;;;;;5095550;28;20216;-66
2024/03/13 09:32:00;;;;;;;3.42;1.73;;;11.00;77.50;;;;;;5095572;28;20230;-66
2024/03/13 09:34:29;;;;;;;2.25;0.90;;;11.00;75.80;;;;;;5097932;28;20184;-66
2024/03/13 09:36:56;;;;;;;3.40;2.00;;;11.00;74.10;;;;;;5100016;28;20188;-66
2024/03/13 09:39:24;;;;;;;3.40;1.60;;;11.00;74.90;;;;;;5099301;28;20433;-66
2024/03/13 09:41:53;;;;;;;3.80;1.83;;;11.00;75.00;;;;;;5099608;28;20185;-67
2024/03/13 09:44:20;;;;;;;2.67;1.30;;;11.10;75.90;;;;;;5099473;28;20238;-66
2024/03/13 09:46:47;;;;;;;2.33;1.00;;;11.20;75.50;;;;;;5099491;28;20430;-66
2024/03/13 09:49:14;;;;;;;2.70;1.27;;;11.30;75.50;;;;;;5099072;28;20496;-66
2024/03/13 09:51:43;;;;;;;3.33;1.80;;;11.40;75.20;;;;;;5099452;28;20660;-66
2024/03/13 09:54:11;;;;;;;1.80;0.80;;;11.50;75.60;;;;;;5099315;28;20538;-66
2024/03/13 09:56:40;;;;;;;2.10;0.87;;;11.60;75.60;;;;;;5099452;28;20516;-66
2024/03/13 09:59:08;;;;;;;2.47;1.00;;;11.80;75.40;;;;;;5099463;28;20495;-66
2024/03/13 10:01:36;;;;;;;2.10;0.97;;;11.90;75.10;;;;;;5098854;28;20192;-66
2024/03/13 10:04:10;;;;;;;2.10;1.10;;;12.10;72.10;;;;;;5099310;28;20474;-67
2024/03/13 10:06:38;;;;;;;1.90;0.80;;;12.20;72.30;;;;;;5100171;28;20421;-66
2024/03/13 10:09:11;;;;;;;1.97;0.80;;;12.20;70.30;;;;;;5098986;28;20568;-66
2024/03/13 10:11:39;;;;;;;1.97;0.87;;;12.30;69.20;;;;;;5100076;28;20770;-66
2024/03/13 10:14:07;;;;;;;2.50;1.10;;;12.30;69.20;;;;;;5098989;28;20473;-66
2024/03/13 10:16:34;;;;;;;2.30;0.93;;;12.20;69.30;;;;;;5098730;28;20426;-66
2024/03/13 10:19:01;;;;;;;2.50;1.13;;;12.30;68.40;;;;;;5098615;28;20533;-66
2024/03/13 10:21:28;;;;;;;2.30;1.03;;;12.30;68.20;;;;;;5098606;28;20422;-66
2024/03/13 10:23:56;;;;;;;1.70;0.60;;;12.30;69.10;;;;;;5098429;28;20471;-66
2024/03/13 10:26:23;;;;;;;2.00;0.87;;;12.30;69.60;;;;;;5098938;28;20464;-66
2024/03/13 10:28:50;;;;;;;2.10;0.90;;;12.30;70.00;;;;;;5098875;28;20538;-66
2024/03/13 10:31:17;;;;;;;2.10;0.70;;;12.40;68.60;;;;;;5098628;28;20434;-66
2024/03/13 10:33:44;;;;;;;2.20;0.80;;;12.40;68.40;;;;;;5098632;28;20519;-67
2024/03/13 10:36:11;;;;;;;2.00;0.70;;;12.40;67.10;;;;;;5098299;28;20470;-66
2024/03/13 10:38:39;;;;;;;1.77;0.60;;;12.40;66.10;;;;;;5098606;28;20842;-66
2024/03/13 10:41:08;;;;;;;2.10;0.77;;;12.40;66.60;;;;;;5098732;28;20433;-66
2024/03/13 10:43:35;;;;;;;2.10;0.80;;;12.40;67.50;;;;;;5098625;28;20480;-67
2024/03/13 10:46:05;;;;;;;2.73;1.00;;;12.30;68.60;;;;;;5096700;28;20474;-66
2024/03/13 10:48:32;;;;;;;2.00;0.80;;;12.30;68.90;;;;;;5098434;28;20454;-66
2024/03/13 10:51:00;;;;;;;1.90;0.80;;;12.40;69.50;;;;;;5098037;28;20438;-66
2024/03/13 10:53:27;;;;;;;2.90;1.20;;;12.50;70.60;;;;;;5098042;28;20465;-66
2024/03/13 10:55:54;;;;;;;2.27;1.10;;;12.80;69.80;;;;;;5098391;28;20453;-66
2024/03/13 10:58:21;;;;;;;2.00;0.90;;;13.20;70.00;;;;;;5097893;28;20669;-66
2024/03/13 11:00:48;;;;;;;2.47;1.17;;;13.60;67.60;;;;;;5098101;28;20466;-66
2024/03/13 11:03:15;;;;;;;2.60;1.60;;;13.90;63.20;;;;;;5097673;28;20480;-67
2024/03/13 11:05:42;;;;;;;2.30;0.93;;;14.00;63.10;;;;;;5097941;28;20442;-66
2024/03/13 11:08:09;;;;;;;1.70;0.70;;;14.00;60.40;;;;;;5097828;28;20470;-66
2024/03/13 11:10:36;;;;;;;2.20;1.10;;;13.90;61.30;;;;;;5097536;28;20466;-66
2024/03/13 11:13:04;;;;;;;2.40;0.60;;;13.90;62.20;;;;;;5097859;28;20471;-67
2024/03/13 11:15:31;;;;;;;2.20;0.93;;;13.90;63.20;;;;;;5097628;28;20518;-66
2024/03/13 11:17:59;;;;;;;2.00;0.80;;;14.00;62.70;;;;;;5097302;28;20438;-66
2024/03/13 11:20:26;;;;;;;1.77;0.73;;;14.20;61.80;;;;;;5097605;28;20466;-66
2024/03/13 11:22:54;;;;;;;2.10;0.90;;;14.30;62.00;;;;;;5097327;28;20482;-67
2024/03/13 11:25:21;;;;;;;1.70;0.60;;;14.30;61.30;;;;;;5097773;28;20446;-66
2024/03/13 11:27:51;;;;;;;1.80;0.70;;;14.20;62.70;;;;;;5114265;28;20426;-67
2024/03/13 11:30:19;;;;;;;1.90;0.80;;;14.30;63.10;;;;;;5097607;28;20956;-66
2024/03/13 11:32:48;;;;;;;2.73;0.80;;;14.30;63.60;;;;;;5097509;28;20434;-67
2024/03/13 11:35:16;;;;;;;2.40;1.00;;;14.30;64.70;;;;;;5097523;28;20508;-66
2024/03/13 11:37:44;;;;;;;2.10;0.70;;;14.40;66.20;;;;;;5113975;28;20462;-66
2024/03/13 11:40:11;;;;;;;2.43;0.77;;;14.60;64.80;;;;;;5097295;28;20492;-67
2024/03/13 11:42:40;;;;;;;1.90;0.60;;;15.10;66.60;;;;;;5097008;28;20422;-67
2024/03/13 11:45:19;;;;;;;1.80;0.50;;;15.60;64.60;;;;;;5097656;28;20451;-67
2024/03/13 11:47:47;;;;;;;2.27;1.00;;;15.80;61.00;;;;;;5098649;28;20832;-67
2024/03/13 11:50:14;;;;;;;17.33;12.80;;;16.30;60.50;;;;;;5096773;28;20476;-67
2024/03/13 11:53:06;;;;;;;5.40;3.70;;;16.90;58.80;;;;;;5097099;28;20481;-67
2024/03/13 11:55:33;;;;;;;2.10;1.10;;;17.50;56.30;;;;;;5114264;28;20434;-67
2024/03/13 11:58:06;;;;;;;2.00;1.00;;;18.10;55.70;;;;;;5096777;28;20514;-67
2024/03/13 12:00:33;;;;;;;1.83;0.70;;;18.80;52.50;;;;;;5097166;28;20449;-68
2024/03/13 12:03:01;;;;;;;1.80;0.60;;;18.90;49.20;;;;;;5096546;28;20479;-67
2024/03/13 12:05:32;;;;;;;4.17;0.87;;;18.90;47.80;;;;;;5096764;28;20765;-67
2024/03/13 12:08:00;;;;;;;2.27;0.60;;;18.80;48.50;;;;;;5096357;28;20430;-67
2024/03/13 12:10:29;;;;;;;3.40;0.73;;;18.70;47.50;;;;;;5096725;28;20472;-66
2024/03/13 12:12:55;;;;;;;1.90;0.50;;;18.70;48.00;;;;;;5096610;28;20448;-67
2024/03/13 12:15:24;;;;;;;1.70;0.50;;;18.50;47.50;;;;;;5096208;28;20815;-66
2024/03/13 12:17:51;;;;;;;2.00;0.70;;;18.40;47.40;;;;;;5096800;28;20452;-67
2024/03/13 12:20:21;;;;;;;1.70;0.50;;;18.40;48.30;;;;;;5097389;28;20472;-67
2024/03/13 12:22:49;;;;;;;1.80;0.50;;;18.80;49.40;;;;;;5097366;28;20430;-68
2024/03/13 12:25:19;;;;;;;1.90;0.67;;;19.50;47.70;;;;;;5096414;28;20513;-67
2024/03/13 12:27:47;;;;;;;1.80;0.60;;;20.20;47.50;;;;;;5098448;28;20458;-67
2024/03/13 12:30:15;;;;;;;2.20;0.60;;;21.00;45.60;;;;;;5096031;28;20480;-67
2024/03/13 12:32:42;;;;;;;1.90;0.50;;;21.80;45.10;;;;;;5096297;28;20469;-67
2024/03/13 12:35:11;;;;;;;2.80;0.73;;;22.20;40.50;;;;;;5095865;28;20430;-67
2024/03/13 12:37:38;;;;;;;1.80;0.60;;;22.20;40.20;;;;;;5096392;28;20915;-67
2024/03/13 12:40:08;;;;;;;2.07;0.60;;;22.50;40.50;;;;;;5095734;28;20468;-67
2024/03/13 12:42:37;;;;;;;3.30;0.57;;;22.90;40.50;;;;;;5096258;28;20425;-67
2024/03/13 12:45:05;;;;;;;1.97;0.60;;;23.20;39.20;;;;;;5095858;28;20468;-67
2024/03/13 12:47:36;;;;;;;1.70;0.50;;;23.40;38.80;;;;;;5096173;28;20426;-67
2024/03/13 12:50:06;;;;;;;3.47;0.73;;;23.30;37.10;;;;;;5096696;28;20454;-67
2024/03/13 12:52:36;;;;;;;1.90;0.60;;;22.90;37.40;;;;;;5096278;28;20517;-67
2024/03/13 12:55:10;;;;;;;1.90;0.60;;;22.50;37.70;;;;;;5096048;28;20677;-67
2024/03/13 12:57:37;;;;;;;2.20;0.60;;;22.30;37.10;;;;;;5096474;28;20432;-67
2024/03/13 13:00:14;;;;;;;3.20;0.60;;;21.90;37.60;;;;;;5095408;28;20480;-67
2024/03/13 13:02:45;;;;;;;2.20;0.70;;;21.50;38.40;;;;;;5096432;28;20962;-67
2024/03/13 13:05:12;;;;;;;2.60;0.93;;;21.20;38.30;;;;;;5096174;28;20908;-67
2024/03/13 13:07:49;;;;;;;2.37;0.60;;;21.00;40.30;;;;;;5095580;28;20511;-67
2024/03/13 13:10:18;;;;;;;2.60;1.00;;;20.80;39.70;;;;;;5095231;28;20458;-67
2024/03/13 13:12:45;;;;;;;2.10;0.80;;;20.50;39.10;;;;;;5095402;28;20908;-67
2024/03/13 13:15:13;;;;;;;2.40;0.90;;;20.30;39.80;;;;;;5095180;28;20466;-67